createdAt,value
2019-03-27T00:00:22.004Z,92.30
2019-03-27T00:02:50.591Z,92.50
2019-03-27T00:05:19.177Z,93.80
2019-03-27T00:07:47.658Z,92.80
2019-03-27T00:10:16.148Z,93.10
2019-03-27T00:12:44.727Z,93.40
2019-03-27T00:15:13.858Z,94.60
2019-03-27T00:17:42.509Z,94.40
2019-03-27T00:20:10.993Z,94.00
2019-03-27T00:22:39.753Z,94.20
2019-03-27T00:25:08.784Z,92.90
2019-03-27T00:27:37.157Z,94.00
2019-03-27T00:30:05.641Z,93.00
2019-03-27T00:32:34.022Z,93.30
2019-03-27T00:35:02.398Z,93.60
2019-03-27T00:37:30.779Z,93.00
2019-03-27T00:39:59.362Z,93.50
2019-03-27T00:42:27.844Z,92.80
2019-03-27T00:44:56.029Z,92.20
2019-03-27T00:47:25.480Z,92.30
2019-03-27T00:49:53.811Z,92.90
2019-03-27T00:52:22.286Z,93.90
2019-03-27T00:54:50.561Z,93.30
2019-03-27T00:57:19.044Z,91.90
2019-03-27T00:59:47.325Z,92.60
2019-03-27T01:02:15.862Z,93.30
2019-03-27T01:04:44.253Z,94.30
2019-03-27T01:07:14.964Z,94.40
2019-03-27T01:09:42.583Z,93.70
2019-03-27T01:12:11.065Z,92.50
2019-03-27T01:14:39.445Z,93.40
2019-03-27T01:17:08.030Z,93.20
2019-03-27T01:19:36.467Z,93.40
2019-03-27T01:22:04.686Z,93.00
2019-03-27T01:24:33.514Z,94.00
2019-03-27T01:27:01.661Z,93.70
2019-03-27T01:29:30.542Z,95.10
2019-03-27T01:32:00.668Z,93.20
2019-03-27T01:34:29.147Z,92.50
2019-03-27T01:36:57.747Z,92.50
2019-03-27T01:39:29.285Z,91.90
2019-03-27T01:41:57.480Z,90.90
2019-03-27T01:44:25.737Z,92.70
2019-03-27T01:46:54.539Z,91.90
2019-03-27T01:49:22.653Z,91.30
2019-03-27T01:51:50.985Z,91.30
2019-03-27T01:54:19.047Z,91.00
2019-03-27T01:56:47.843Z,91.00
2019-03-27T01:59:16.223Z,90.80
2019-03-27T02:01:47.088Z,90.90
2019-03-27T02:04:14.417Z,90.70
2019-03-27T02:06:45.663Z,90.80
2019-03-27T02:12:13.047Z,90.60
2019-03-27T02:14:40.142Z,90.40
2019-03-27T02:17:25.474Z,90.50
2019-03-27T02:19:55.702Z,89.50
2019-03-27T02:22:24.590Z,89.90
2019-03-27T02:24:52.859Z,90.10
2019-03-27T02:27:24.551Z,90.30
2019-03-27T02:29:52.820Z,90.10
2019-03-27T02:32:23.626Z,90.10
2019-03-27T02:34:52.852Z,90.10
2019-03-27T02:37:21.637Z,90.20
2019-03-27T02:40:03.313Z,90.20
2019-03-27T02:42:32.001Z,90.30
2019-03-27T02:45:00.897Z,90.70
2019-03-27T02:47:32.345Z,90.40
2019-03-27T02:50:01.292Z,90.20
2019-03-27T02:52:31.491Z,90.00
2019-03-27T02:55:04.343Z,89.40
2019-03-27T02:57:48.108Z,89.50
2019-03-27T03:00:15.449Z,89.60
2019-03-27T03:02:46.896Z,89.10
2019-03-27T03:05:15.585Z,90.00
2019-03-27T03:10:46.357Z,89.50
2019-03-27T03:13:14.828Z,88.40
2019-03-27T03:15:46.076Z,87.30
2019-03-27T03:18:16.496Z,87.10
2019-03-27T03:20:46.384Z,88.10
2019-03-27T03:23:14.819Z,86.60
2019-03-27T03:25:43.066Z,86.50
2019-03-27T03:28:11.584Z,85.90
2019-03-27T03:30:40.650Z,86.40
2019-03-27T03:33:09.245Z,86.50
2019-03-27T03:35:37.928Z,86.00
2019-03-27T03:38:07.967Z,86.70
2019-03-27T03:40:36.122Z,87.00
2019-03-27T03:43:07.612Z,87.10
2019-03-27T03:45:41.437Z,87.30
2019-03-27T03:48:10.578Z,87.70
2019-03-27T03:50:46.300Z,87.50
2019-03-27T03:53:17.119Z,87.80
2019-03-27T03:55:44.683Z,87.40
2019-03-27T03:58:13.076Z,87.00
2019-03-27T04:00:41.386Z,86.50
2019-03-27T04:03:09.776Z,85.90
2019-03-27T04:05:38.870Z,85.90
2019-03-27T04:08:07.236Z,86.40
2019-03-27T04:10:35.715Z,85.40
2019-03-27T04:13:03.895Z,86.00
2019-03-27T04:15:32.379Z,83.70
2019-03-27T04:18:00.860Z,85.50
2019-03-27T04:20:28.951Z,85.00
2019-03-27T04:22:57.206Z,85.90
2019-03-27T04:25:25.545Z,86.10
2019-03-27T04:27:54.067Z,87.30
2019-03-27T04:30:22.564Z,86.30
2019-03-27T04:32:50.828Z,86.00
2019-03-27T04:35:22.613Z,85.60
2019-03-27T04:39:33.986Z,85.60
2019-03-27T04:43:52.041Z,86.30
2019-03-27T04:46:20.517Z,86.20
2019-03-27T04:48:48.862Z,86.00
2019-03-27T04:51:17.385Z,86.40
2019-03-27T04:53:45.906Z,86.20
2019-03-27T04:56:16.597Z,85.00
2019-03-27T04:58:47.764Z,85.60
2019-03-27T05:01:15.158Z,84.30
2019-03-27T05:03:46.550Z,83.50
2019-03-27T05:06:15.035Z,83.60
2019-03-27T05:08:43.309Z,85.00
2019-03-27T05:11:11.691Z,85.10
2019-03-27T05:13:40.149Z,84.40
2019-03-27T05:16:08.449Z,85.40
2019-03-27T05:18:37.032Z,85.80
2019-03-27T05:21:05.519Z,86.00
2019-03-27T05:23:33.794Z,84.40
2019-03-27T05:26:02.228Z,84.80
2019-03-27T05:28:30.761Z,84.40
2019-03-27T05:31:14.266Z,82.60
2019-03-27T05:34:28.143Z,84.00
2019-03-27T05:45:05.898Z,83.70
2019-03-27T05:50:31.916Z,84.60
2019-03-27T05:56:06.632Z,86.30
2019-03-27T05:58:50.131Z,84.80
2019-03-27T06:01:18.610Z,84.70
2019-03-27T06:03:46.785Z,85.70
2019-03-27T06:12:29.351Z,85.40
2019-03-27T06:14:58.029Z,84.70
2019-03-27T06:17:26.259Z,84.30
2019-03-27T06:19:54.479Z,84.10
2019-03-27T06:22:22.803Z,84.50
2019-03-27T06:24:51.139Z,84.90
2019-03-27T06:27:19.520Z,86.00
2019-03-27T06:29:49.445Z,86.30
2019-03-27T06:32:17.813Z,86.00
2019-03-27T06:34:46.192Z,85.20
2019-03-27T06:37:14.956Z,83.70
2019-03-27T06:42:46.781Z,80.60
2019-03-27T06:45:15.176Z,78.40
2019-03-27T06:50:58.220Z,80.50
2019-03-27T06:56:20.552Z,76.80
2019-03-27T06:58:54.433Z,77.00
2019-03-27T07:01:18.845Z,79.10
2019-03-27T07:03:47.234Z,79.20
2019-03-27T07:06:19.466Z,81.20
2019-03-27T07:08:49.718Z,83.10
2019-03-27T07:11:17.909Z,83.50
2019-03-27T07:13:46.376Z,83.00
2019-03-27T07:16:14.966Z,77.60
2019-03-27T07:18:43.456Z,78.80
2019-03-27T07:21:11.933Z,81.60
2019-03-27T07:23:40.270Z,83.00
2019-03-27T07:26:08.644Z,84.60
2019-03-27T07:28:37.068Z,84.90
2019-03-27T07:31:26.134Z,86.20
2019-03-27T07:33:54.716Z,85.60
2019-03-27T07:36:22.994Z,85.90
2019-03-27T07:41:40.221Z,87.00
2019-03-27T07:44:11.391Z,87.70
2019-03-27T07:46:42.543Z,87.80
2019-03-27T07:49:10.606Z,87.70
2019-03-27T07:51:38.843Z,87.60
2019-03-27T07:54:07.565Z,88.00
2019-03-27T07:56:35.902Z,87.60
2019-03-27T07:59:06.878Z,87.10
2019-03-27T08:01:35.182Z,87.20
2019-03-27T08:04:03.535Z,86.50
2019-03-27T08:06:31.828Z,86.70
2019-03-27T08:09:00.092Z,86.50
2019-03-27T08:11:29.852Z,86.70
2019-03-27T08:14:00.201Z,87.00
2019-03-27T08:16:31.204Z,87.50
2019-03-27T08:19:07.317Z,87.50
2019-03-27T08:21:32.540Z,87.40
2019-03-27T08:24:01.334Z,87.60
2019-03-27T08:26:29.501Z,87.70
2019-03-27T08:28:57.987Z,88.00
2019-03-27T08:31:26.366Z,88.10
2019-03-27T08:33:54.692Z,88.40
2019-03-27T08:36:23.227Z,88.60
2019-03-27T08:38:54.579Z,89.10
2019-03-27T08:41:23.075Z,89.20
2019-03-27T08:43:51.403Z,89.30
2019-03-27T08:46:19.997Z,89.40
2019-03-27T08:48:48.531Z,89.40
2019-03-27T08:51:16.787Z,89.50
2019-03-27T08:53:45.575Z,88.70
2019-03-27T08:56:13.952Z,89.10
2019-03-27T08:58:42.339Z,89.00
2019-03-27T09:01:10.715Z,88.80
2019-03-27T09:03:39.092Z,88.80
2019-03-27T09:06:07.579Z,89.10
2019-03-27T09:08:36.189Z,89.00
2019-03-27T09:11:04.902Z,89.10
2019-03-27T09:13:34.969Z,89.10
2019-03-27T09:16:03.451Z,89.10
2019-03-27T09:18:32.043Z,89.20
2019-03-27T09:21:00.106Z,89.40
2019-03-27T09:23:28.694Z,89.20
2019-03-27T09:25:57.073Z,89.00
2019-03-27T09:28:25.348Z,89.30
2019-03-27T09:30:56.143Z,89.70
2019-03-27T09:33:24.738Z,89.70
2019-03-27T09:35:53.206Z,89.80
2019-03-27T09:38:21.746Z,90.00
2019-03-27T09:40:50.015Z,90.00
2019-03-27T09:43:29.583Z,90.10
2019-03-27T09:45:53.638Z,90.10
2019-03-27T09:48:22.181Z,90.10
2019-03-27T09:50:50.508Z,90.00
2019-03-27T09:53:22.048Z,90.00
2019-03-27T09:55:50.546Z,90.10
2019-03-27T09:58:18.808Z,90.10
2019-03-27T10:00:47.291Z,90.20
2019-03-27T10:03:15.672Z,90.30
2019-03-27T10:05:44.081Z,90.30
2019-03-27T10:08:12.372Z,90.30
2019-03-27T10:10:41.331Z,90.20
2019-03-27T10:13:09.526Z,90.20
2019-03-27T10:15:37.983Z,90.20
2019-03-27T10:18:06.362Z,90.30
2019-03-27T10:20:34.847Z,90.20
2019-03-27T10:23:03.126Z,90.30
2019-03-27T10:25:31.146Z,90.30
2019-03-27T10:27:59.433Z,90.30
2019-03-27T10:30:36.483Z,90.30
2019-03-27T10:39:21.681Z,90.40
2019-03-27T10:41:50.154Z,91.00
2019-03-27T10:44:27.224Z,90.60
2019-03-27T10:46:55.893Z,90.70
2019-03-27T10:49:35.783Z,90.70
2019-03-27T10:52:09.162Z,90.60
2019-03-27T10:54:36.439Z,90.80
2019-03-27T10:57:04.806Z,90.80
2019-03-27T10:59:33.388Z,90.90
2019-03-27T11:02:04.534Z,91.00
2019-03-27T11:04:34.658Z,90.80
2019-03-27T11:07:03.107Z,90.90
2019-03-27T11:09:34.652Z,90.80
2019-03-27T11:12:01.331Z,90.80
2019-03-27T11:14:38.211Z,91.00
2019-03-27T11:17:02.492Z,90.90
2019-03-27T11:19:33.843Z,90.90
2019-03-27T11:22:02.019Z,90.90
2019-03-27T11:24:33.805Z,91.20
2019-03-27T11:27:02.327Z,91.00
